EDDF

Frankfurt am Main International Airport

Frankfurt-am-Main, Germany
METAR EDDF 141220Z 07011KT 9999 BKN034 01/M06 Q1021 NOSIG
Observed Flight Rules
Dec-14 @ 12:20 UTC (18 minutes ago) Visual Flight Rules
Wind Visibility Clouds
70° at 11 knots 10,000+ meters
  • Broken at 3,400' AGL
Temperatures Readings
Current 1°C / 34°F
Dewpoint -6°C / 21°F
Humidity 60%
Altimeter 30.15" Hg
Pressure 1021 hPa
Elevation 113
METAR EDDF 141220Z 07011KT 9999 BKN034 01/M06 Q1021 NOSIG
Observed Flight Rules
Dec-14 @ 12:20 UTC
(18 minutes ago)
VFR
Wind Visibility
70° at 11 knots 10,000+ meters
Clouds
  • Broken at 3,400' AGL
Temperature Dewpoint
1°C / 34°F -6°C / 21°F
Humidity Altimeter Pressure
60% 30.15" Hg 1021 hPa